Time;durP1;ratioP1;P1;durP2;ratioP2;P2;SDS_P1;SDS_P2;PMS_P1;PMS_P2;Temp;Humidity;BMP_temperature;BMP_pressure;BME280_temperature;BME280_humidity;BME280_pressure;Samples;Min_cycle;Max_cycle;Signal;HPM_P1;HPM_P2
2021/11/07 00:01:21;;;;;;;7.20;3.90;;;9.80;99.90;;;;;;5025789;23;20484;-63
2021/11/07 00:03:54;;;;;;;7.70;4.03;;;9.80;99.90;;;;;;5018708;28;20437;-63
2021/11/07 00:06:25;;;;;;;6.60;3.93;;;9.80;99.90;;;;;;5025575;23;20485;-63
2021/11/07 00:08:56;;;;;;;8.90;3.57;;;9.80;99.90;;;;;;5018282;28;20493;-64
2021/11/07 00:11:28;;;;;;;5.03;3.50;;;9.80;99.90;;;;;;5018576;28;20429;-65
2021/11/07 00:13:56;;;;;;;7.47;4.40;;;9.80;99.90;;;;;;5018366;28;20476;-62
2021/11/07 00:16:26;;;;;;;5.60;3.70;;;9.80;99.90;;;;;;5017830;28;20456;-63
2021/11/07 00:19:05;;;;;;;6.33;4.33;;;9.90;99.90;;;;;;5017792;28;20472;-62
2021/11/07 00:21:38;;;;;;;3.80;3.07;;;9.90;99.90;;;;;;5025406;23;20523;-60
2021/11/07 00:24:08;;;;;;;6.83;4.00;;;9.80;99.90;;;;;;5018159;28;20480;-63
2021/11/07 00:26:43;;;;;;;5.77;3.17;;;9.80;99.90;;;;;;5017696;28;20439;-62
2021/11/07 00:29:15;;;;;;;6.50;3.43;;;9.90;99.90;;;;;;5017969;28;20432;-61
2021/11/07 00:31:47;;;;;;;5.50;3.77;;;9.90;99.90;;;;;;5025504;23;20503;-61
2021/11/07 00:34:45;;;;;;;7.43;4.60;;;9.90;99.90;;;;;;5017979;28;20433;-62
2021/11/07 00:37:12;;;;;;;6.77;4.27;;;9.90;99.90;;;;;;5024807;23;20563;-61
2021/11/07 00:39:45;;;;;;;6.57;3.90;;;9.90;99.90;;;;;;5017826;28;20441;-62
2021/11/07 00:42:14;;;;;;;9.83;4.13;;;9.80;99.90;;;;;;5025787;23;21007;-65
2021/11/07 00:44:52;;;;;;;7.07;4.63;;;9.80;99.90;;;;;;5018611;28;20857;-61
2021/11/07 00:50:03;;;;;;;5.67;3.03;;;9.80;99.90;;;;;;5017297;28;20499;-62
2021/11/07 00:52:34;;;;;;;6.30;4.80;;;9.70;99.90;;;;;;5025896;23;20469;-62
2021/11/07 00:55:06;;;;;;;8.70;5.10;;;9.80;99.90;;;;;;5017945;28;20433;-63
2021/11/07 00:57:43;;;;;;;7.63;4.70;;;9.80;99.90;;;;;;5032106;23;20485;-62
2021/11/07 01:00:22;;;;;;;7.20;4.63;;;9.80;99.90;;;;;;5017444;28;20539;-62
2021/11/07 01:02:53;;;;;;;6.50;4.23;;;9.70;99.90;;;;;;5025824;23;20966;-63
2021/11/07 01:05:24;;;;;;;8.10;5.07;;;9.60;99.90;;;;;;5017519;28;20527;-62
2021/11/07 01:07:51;;;;;;;7.47;5.00;;;9.60;99.90;;;;;;5025168;23;20527;-62
2021/11/07 01:10:18;;;;;;;8.93;4.80;;;9.50;99.90;;;;;;5017594;28;20539;-59
2021/11/07 01:15:15;;;;;;;13.37;4.33;;;9.40;99.90;;;;;;5022716;23;20477;-63
2021/11/07 01:17:42;;;;;;;7.10;4.60;;;9.50;99.90;;;;;;5017697;28;20445;-61
2021/11/07 01:20:11;;;;;;;6.40;4.30;;;9.50;99.90;;;;;;5024812;23;20887;-62
2021/11/07 01:22:47;;;;;;;8.27;5.33;;;9.40;99.90;;;;;;5018058;28;20449;-63
2021/11/07 01:25:14;;;;;;;11.70;4.90;;;9.40;99.90;;;;;;5024710;23;20503;-63
2021/11/07 01:27:42;;;;;;;5.47;3.83;;;9.40;99.90;;;;;;5017710;28;20469;-62
2021/11/07 01:30:15;;;;;;;4.60;3.23;;;9.40;99.90;;;;;;5024804;23;20487;-63
2021/11/07 01:32:47;;;;;;;11.87;4.90;;;9.40;99.90;;;;;;5018072;28;20484;-62
2021/11/07 01:35:18;;;;;;;7.40;4.40;;;9.40;99.90;;;;;;5024524;23;20520;-61
2021/11/07 01:37:56;;;;;;;9.40;4.90;;;9.50;99.90;;;;;;5017442;28;20480;-62
2021/11/07 01:40:25;;;;;;;6.30;3.77;;;9.40;99.90;;;;;;5025174;23;20519;-59
2021/11/07 01:42:55;;;;;;;8.00;3.50;;;9.40;99.90;;;;;;5017793;28;20508;-62
2021/11/07 01:45:25;;;;;;;6.10;4.67;;;9.40;99.90;;;;;;5065464;23;20484;-55
2021/11/07 01:48:01;;;;;;;5.30;3.40;;;9.40;99.90;;;;;;5035474;28;20484;-58
2021/11/07 01:50:35;;;;;;;10.03;4.40;;;9.40;99.90;;;;;;5042054;23;20492;-56
2021/11/07 01:53:18;;;;;;;5.40;3.77;;;9.40;99.90;;;;;;5034748;28;20424;-58
2021/11/07 01:55:45;;;;;;;9.97;4.37;;;9.50;99.90;;;;;;5048401;23;20493;-60
2021/11/07 01:58:12;;;;;;;8.17;4.70;;;9.50;99.90;;;;;;5020310;28;20433;-60
2021/11/07 02:00:39;;;;;;;5.97;4.67;;;9.50;99.90;;;;;;5028284;23;20555;-60
2021/11/07 02:03:07;;;;;;;6.83;4.03;;;9.40;99.90;;;;;;5020816;28;20453;-62
2021/11/07 02:05:33;;;;;;;6.93;3.53;;;9.50;99.90;;;;;;5029338;23;20484;-64
2021/11/07 02:08:03;;;;;;;6.70;4.03;;;9.50;99.90;;;;;;5021611;28;20484;-60
2021/11/07 02:10:30;;;;;;;5.93;4.53;;;9.50;99.90;;;;;;5027616;23;20555;-64
2021/11/07 02:12:57;;;;;;;6.93;3.93;;;9.50;99.90;;;;;;5020550;28;20444;-61
2021/11/07 02:15:23;;;;;;;4.27;3.70;;;9.60;99.90;;;;;;5028245;23;20507;-61
2021/11/07 02:17:50;;;;;;;6.50;4.27;;;9.50;99.90;;;;;;5020673;28;20445;-62
2021/11/07 02:22:58;;;;;;;6.70;3.70;;;9.50;99.90;;;;;;5025208;23;20512;-62
2021/11/07 02:25:26;;;;;;;8.77;4.03;;;9.50;99.90;;;;;;5020392;28;20444;-59
2021/11/07 02:27:53;;;;;;;9.30;3.53;;;9.50;99.90;;;;;;5042846;23;20497;-60
2021/11/07 02:30:20;;;;;;;6.77;3.77;;;9.50;99.90;;;;;;5020442;28;20449;-61
2021/11/07 02:32:49;;;;;;;8.60;4.50;;;9.50;99.90;;;;;;5027303;23;20492;-61
2021/11/07 02:35:18;;;;;;;8.30;5.13;;;9.50;99.90;;;;;;5020358;28;20476;-63
2021/11/07 02:37:46;;;;;;;7.50;3.87;;;9.50;99.90;;;;;;5027753;23;20551;-64
2021/11/07 02:40:14;;;;;;;8.17;4.50;;;9.60;99.90;;;;;;5019804;28;20449;-62
2021/11/07 02:42:43;;;;;;;11.13;4.57;;;9.60;99.90;;;;;;5027806;23;20496;-62
2021/11/07 02:45:11;;;;;;;5.83;3.50;;;9.50;99.90;;;;;;5020847;28;20457;-62
2021/11/07 02:47:38;;;;;;;6.97;4.00;;;9.50;99.90;;;;;;5027299;23;20486;-63
2021/11/07 02:50:06;;;;;;;8.37;4.10;;;9.50;99.90;;;;;;5020103;28;20485;-62
2021/11/07 02:52:33;;;;;;;5.10;3.33;;;9.50;99.90;;;;;;5026895;23;20461;-59
2021/11/07 02:55:00;;;;;;;6.80;4.10;;;9.50;99.90;;;;;;5019824;28;20935;-62
2021/11/07 02:59:58;;;;;;;9.70;4.53;;;9.50;99.90;;;;;;5024566;23;20487;-62
2021/11/07 03:02:26;;;;;;;5.87;3.87;;;9.50;99.90;;;;;;5020114;28;20434;-58
2021/11/07 03:04:56;;;;;;;4.50;3.03;;;9.60;99.90;;;;;;5026965;23;20496;-62
2021/11/07 03:07:28;;;;;;;6.77;4.37;;;9.60;99.90;;;;;;5018952;28;20445;-62
2021/11/07 03:09:57;;;;;;;4.70;3.10;;;9.60;99.90;;;;;;5033410;23;20579;-61
2021/11/07 03:12:23;;;;;;;6.17;3.30;;;9.60;99.90;;;;;;5020739;28;20477;-60
2021/11/07 03:14:53;;;;;;;5.30;3.70;;;9.60;99.90;;;;;;5027467;23;20551;-57
2021/11/07 03:17:26;;;;;;;4.47;3.40;;;9.50;99.90;;;;;;5019080;28;20473;-61
2021/11/07 03:19:54;;;;;;;6.13;3.60;;;9.60;99.90;;;;;;5041836;23;20492;-60
2021/11/07 03:22:23;;;;;;;5.97;3.13;;;9.60;99.90;;;;;;5018936;28;20455;-59
2021/11/07 03:25:05;;;;;;;4.97;3.07;;;9.60;99.90;;;;;;5026928;23;20440;-61
2021/11/07 03:27:39;;;;;;;5.30;3.77;;;9.60;99.90;;;;;;5019470;28;20430;-60
2021/11/07 03:30:17;;;;;;;8.43;3.77;;;9.60;99.90;;;;;;5026424;23;20492;-60
2021/11/07 03:32:48;;;;;;;6.00;3.70;;;9.60;99.90;;;;;;5020635;28;20520;-60
2021/11/07 03:35:18;;;;;;;5.60;3.53;;;9.60;99.90;;;;;;5041531;23;20503;-62
2021/11/07 03:37:55;;;;;;;5.80;3.30;;;9.60;99.90;;;;;;5019237;28;20428;-62
2021/11/07 03:40:23;;;;;;;10.77;4.00;;;9.60;99.90;;;;;;5027656;23;20488;-60
2021/11/07 03:42:50;;;;;;;4.63;3.03;;;9.60;99.90;;;;;;5019846;28;20464;-61
2021/11/07 03:47:57;;;;;;;4.47;3.47;;;9.60;99.90;;;;;;4999033;28;20473;-61
2021/11/07 03:52:55;;;;;;;4.40;2.90;;;9.50;99.90;;;;;;5024068;23;20480;-61
2021/11/07 03:55:25;;;;;;;7.73;3.97;;;9.60;99.90;;;;;;5019785;28;20459;-59
2021/11/07 03:57:51;;;;;;;6.97;3.23;;;9.60;99.90;;;;;;5026654;23;20484;-59
2021/11/07 04:00:20;;;;;;;4.30;3.20;;;9.60;99.90;;;;;;5019397;28;20466;-61
2021/11/07 04:02:49;;;;;;;8.30;3.43;;;9.60;99.90;;;;;;5025988;23;20493;-60
2021/11/07 04:05:18;;;;;;;3.83;3.27;;;9.60;99.90;;;;;;5019823;28;20902;-65
2021/11/07 04:07:45;;;;;;;4.67;2.80;;;9.60;99.90;;;;;;5026454;23;20495;-62
2021/11/07 04:10:12;;;;;;;5.63;3.53;;;9.60;99.90;;;;;;5019691;28;20794;-61
2021/11/07 04:12:39;;;;;;;5.10;3.30;;;9.60;99.90;;;;;;5027200;23;20530;-63
2021/11/07 04:15:08;;;;;;;6.00;3.43;;;9.60;99.90;;;;;;5019432;28;20528;-61
2021/11/07 04:17:35;;;;;;;6.07;3.33;;;9.60;99.90;;;;;;5026023;23;20493;-58
2021/11/07 04:20:04;;;;;;;8.70;2.53;;;9.60;99.90;;;;;;5019015;28;20441;-56
2021/11/07 04:22:31;;;;;;;7.37;3.80;;;9.70;99.90;;;;;;5026332;23;20555;-61
2021/11/07 04:24:58;;;;;;;3.00;2.13;;;9.50;99.90;;;;;;5019569;28;20462;-61
2021/11/07 04:27:35;;;;;;;5.03;3.23;;;9.50;99.90;;;;;;5026077;23;20554;-60
2021/11/07 04:30:02;;;;;;;3.70;3.03;;;9.50;99.90;;;;;;5018871;28;20793;-61
2021/11/07 04:32:30;;;;;;;6.70;4.00;;;9.50;99.90;;;;;;5025948;23;20484;-60
2021/11/07 04:34:59;;;;;;;5.47;3.30;;;9.40;99.90;;;;;;5041890;23;20528;-62
2021/11/07 04:37:27;;;;;;;4.63;2.90;;;9.40;99.90;;;;;;5019438;28;20980;-61
2021/11/07 04:39:55;;;;;;;6.10;2.80;;;9.40;99.90;;;;;;5026205;23;20503;-60
2021/11/07 04:42:24;;;;;;;6.67;3.50;;;9.40;99.90;;;;;;5019307;28;20433;-60
2021/11/07 04:45:01;;;;;;;3.80;3.20;;;9.40;99.90;;;;;;5026317;23;20547;-61
2021/11/07 04:47:27;;;;;;;4.40;3.20;;;9.50;99.90;;;;;;5018885;28;20729;-61
2021/11/07 04:49:56;;;;;;;6.80;2.90;;;9.50;99.90;;;;;;5026062;23;20496;-61
2021/11/07 04:52:23;;;;;;;5.73;2.67;;;9.50;99.90;;;;;;5019155;28;20526;-60
2021/11/07 04:54:57;;;;;;;5.37;3.50;;;9.50;99.90;;;;;;5026717;23;20836;-61
2021/11/07 04:57:24;;;;;;;4.10;2.33;;;9.60;99.90;;;;;;5019189;28;20476;-61
2021/11/07 04:59:51;;;;;;;5.87;3.13;;;9.60;99.90;;;;;;5026202;23;20489;-63
2021/11/07 05:02:18;;;;;;;7.60;3.17;;;9.60;99.90;;;;;;5018753;28;20495;-61
2021/11/07 05:04:44;;;;;;;5.40;3.77;;;9.70;99.90;;;;;;5025784;23;20570;-60
2021/11/07 05:07:11;;;;;;;6.50;3.13;;;9.70;99.90;;;;;;5019114;28;20445;-60
2021/11/07 05:09:54;;;;;;;3.87;2.67;;;9.70;99.90;;;;;;5025481;23;20477;-60
2021/11/07 05:12:22;;;;;;;4.20;2.73;;;9.70;99.90;;;;;;5019045;28;20461;-59
2021/11/07 05:14:49;;;;;;;3.87;2.80;;;9.70;99.90;;;;;;5025702;23;20473;-62
2021/11/07 05:17:16;;;;;;;6.10;3.90;;;9.70;99.90;;;;;;5019252;28;20468;-61
2021/11/07 05:22:08;;;;;;;5.50;2.93;;;9.80;99.90;;;;;;5023575;23;20512;-60
2021/11/07 05:24:35;;;;;;;3.40;2.50;;;9.80;99.90;;;;;;5018440;28;20229;-59
2021/11/07 05:27:02;;;;;;;3.70;3.23;;;9.80;99.90;;;;;;5026002;23;20492;-61
2021/11/07 05:29:30;;;;;;;3.83;3.00;;;9.80;99.90;;;;;;5019366;28;20994;-61
2021/11/07 05:31:59;;;;;;;3.60;2.63;;;9.80;99.90;;;;;;5036480;23;21028;-61
2021/11/07 05:34:25;;;;;;;4.80;2.93;;;9.70;99.90;;;;;;5022082;28;20946;-60
2021/11/07 05:36:53;;;;;;;3.70;2.40;;;9.80;99.90;;;;;;5025417;23;20488;-61
2021/11/07 05:39:20;;;;;;;2.40;2.00;;;9.80;99.90;;;;;;5018137;28;20445;-62
2021/11/07 05:41:47;;;;;;;6.33;3.17;;;9.80;99.90;;;;;;5025095;23;20527;-62
2021/11/07 05:44:14;;;;;;;3.83;2.53;;;9.80;99.90;;;;;;5017930;28;20441;-61
2021/11/07 05:49:10;;;;;;;3.80;2.47;;;9.90;99.90;;;;;;5016278;28;20481;-61
2021/11/07 05:51:37;;;;;;;4.83;2.63;;;9.90;99.90;;;;;;5017926;28;20511;-59
2021/11/07 05:54:04;;;;;;;9.37;2.97;;;9.90;99.90;;;;;;5024791;23;20481;-61
2021/11/07 05:56:31;;;;;;;4.27;2.80;;;9.90;99.90;;;;;;5017951;28;20445;-62
2021/11/07 05:58:58;;;;;;;5.97;2.40;;;9.90;99.90;;;;;;5025031;23;20615;-62
2021/11/07 06:01:25;;;;;;;3.90;3.20;;;10.00;99.90;;;;;;5024186;28;20455;-61
2021/11/07 06:03:55;;;;;;;5.30;2.93;;;10.00;99.90;;;;;;5032151;23;20863;-65
2021/11/07 06:06:23;;;;;;;5.57;3.10;;;9.90;99.90;;;;;;5028725;28;20476;-61
2021/11/07 06:08:50;;;;;;;4.87;2.57;;;10.00;99.90;;;;;;5034225;23;20824;-66
2021/11/07 06:11:16;;;;;;;4.23;2.70;;;10.00;99.90;;;;;;5026754;28;20429;-59
2021/11/07 06:13:45;;;;;;;5.10;3.00;;;9.90;99.90;;;;;;5034187;23;20480;-60
2021/11/07 06:16:11;;;;;;;3.83;2.97;;;10.00;99.90;;;;;;5027549;28;20535;-61
2021/11/07 06:18:38;;;;;;;3.17;2.30;;;9.90;99.90;;;;;;5034069;23;20492;-62
2021/11/07 06:21:05;;;;;;;5.80;2.93;;;10.00;99.90;;;;;;5027275;28;20945;-61
2021/11/07 06:23:36;;;;;;;4.67;3.30;;;10.00;99.90;;;;;;5033230;23;20581;-62
2021/11/07 06:26:04;;;;;;;4.20;2.83;;;10.00;99.90;;;;;;5026243;28;20477;-62
2021/11/07 06:28:31;;;;;;;5.93;3.33;;;10.00;99.90;;;;;;5033365;23;20433;-59
2021/11/07 06:31:03;;;;;;;3.47;2.00;;;10.00;99.90;;;;;;5025474;28;20437;-60
2021/11/07 06:35:59;;;;;;;3.77;2.40;;;10.00;99.90;;;;;;5045882;23;20477;-60
2021/11/07 06:38:26;;;;;;;3.03;1.97;;;10.00;99.90;;;;;;5025722;28;20747;-60
2021/11/07 06:40:54;;;;;;;4.10;3.27;;;10.00;99.90;;;;;;5047358;23;20500;-60
2021/11/07 06:43:22;;;;;;;3.60;3.00;;;10.00;99.90;;;;;;5024746;28;21037;-61
2021/11/07 06:45:49;;;;;;;3.13;2.70;;;10.00;99.90;;;;;;5032885;23;20523;-61
2021/11/07 06:48:19;;;;;;;4.90;2.50;;;9.90;99.90;;;;;;5035295;28;20468;-53
2021/11/07 06:50:46;;;;;;;3.87;2.50;;;9.90;99.90;;;;;;5058182;23;20543;-62
2021/11/07 06:53:15;;;;;;;4.20;3.00;;;9.90;99.90;;;;;;5036187;28;20488;-59
2021/11/07 06:55:41;;;;;;;6.50;2.90;;;9.80;99.90;;;;;;5049572;23;20489;-60
2021/11/07 06:58:10;;;;;;;4.03;2.90;;;9.80;99.90;;;;;;5035271;28;20503;-60
2021/11/07 07:00:41;;;;;;;5.00;2.40;;;9.70;99.90;;;;;;5074891;23;20467;-58
2021/11/07 07:03:10;;;;;;;5.80;3.17;;;9.70;99.90;;;;;;5015031;28;20469;-57
2021/11/07 07:05:37;;;;;;;5.13;2.40;;;9.70;99.90;;;;;;5040016;23;20485;-57
2021/11/07 07:08:11;;;;;;;4.33;2.30;;;9.70;99.90;;;;;;5034092;28;20460;-59
2021/11/07 07:13:40;;;;;;;3.73;2.90;;;9.80;99.90;;;;;;5043336;23;20571;-60
2021/11/07 07:16:19;;;;;;;5.13;2.50;;;9.80;99.90;;;;;;5043542;23;20429;-59
2021/11/07 07:18:56;;;;;;;3.53;3.23;;;9.80;99.90;;;;;;5015278;28;20488;-55
2021/11/07 07:21:46;;;;;;;7.53;3.20;;;9.70;99.90;;;;;;5025737;23;20465;-61
2021/11/07 07:27:19;;;;;;;2.90;2.33;;;9.80;99.90;;;;;;5070727;23;20565;-60
2021/11/07 07:30:12;;;;;;;4.27;2.33;;;9.80;99.90;;;;;;5035434;28;20515;-62
2021/11/07 07:33:13;;;;;;;3.87;2.60;;;9.90;99.90;;;;;;5057693;23;20527;-61
2021/11/07 07:35:40;;;;;;;4.27;2.80;;;9.90;99.90;;;;;;5034515;28;20437;-61
2021/11/07 07:38:08;;;;;;;6.20;3.60;;;9.90;99.90;;;;;;5058665;23;20492;-64
2021/11/07 07:40:35;;;;;;;6.20;2.90;;;9.90;99.90;;;;;;5036533;28;20448;-64
2021/11/07 07:43:09;;;;;;;5.20;3.27;;;9.90;99.90;;;;;;5042182;23;20519;-66
2021/11/07 07:45:40;;;;;;;4.67;3.83;;;9.90;99.90;;;;;;5035916;28;20440;-61
2021/11/07 07:48:08;;;;;;;4.37;2.97;;;10.00;99.90;;;;;;5043579;23;20567;-63
2021/11/07 07:50:41;;;;;;;4.73;2.90;;;9.90;99.90;;;;;;5036931;28;20501;-66
2021/11/07 07:53:16;;;;;;;8.43;3.53;;;9.90;99.90;;;;;;5058010;23;20523;-65
2021/11/07 07:56:00;;;;;;;3.87;2.47;;;9.90;99.90;;;;;;5036408;28;20536;-62
2021/11/07 07:58:27;;;;;;;4.40;3.00;;;9.80;99.90;;;;;;5043551;23;20485;-58
2021/11/07 08:00:58;;;;;;;4.50;3.50;;;9.80;99.90;;;;;;5036645;28;20511;-61
2021/11/07 08:03:44;;;;;;;5.97;2.90;;;9.80;99.90;;;;;;5058669;23;20489;-63
2021/11/07 08:06:21;;;;;;;5.50;3.87;;;9.80;99.90;;;;;;5036037;28;20440;-61
2021/11/07 08:08:51;;;;;;;4.20;2.83;;;9.80;99.90;;;;;;5043014;23;20468;-63
2021/11/07 08:11:22;;;;;;;4.73;3.17;;;9.90;99.90;;;;;;5036619;28;20414;-59
2021/11/07 08:13:51;;;;;;;8.87;3.90;;;9.90;99.90;;;;;;5057405;23;20503;-58
2021/11/07 08:16:21;;;;;;;6.30;3.07;;;10.00;99.90;;;;;;5036136;28;20529;-61
2021/11/07 08:18:48;;;;;;;3.43;3.00;;;10.00;99.90;;;;;;5035805;23;20481;-59
2021/11/07 08:21:15;;;;;;;6.40;3.40;;;10.00;99.90;;;;;;5005051;28;20454;-60
2021/11/07 08:23:42;;;;;;;8.27;3.77;;;10.00;99.90;;;;;;5010826;23;20454;-58
2021/11/07 08:26:09;;;;;;;7.07;3.30;;;9.90;99.90;;;;;;5021999;28;20468;-63
2021/11/07 08:28:37;;;;;;;7.40;3.90;;;9.90;99.90;;;;;;5022673;28;20461;-62
2021/11/07 08:31:07;;;;;;;7.70;4.00;;;9.90;99.90;;;;;;5031195;23;20496;-63
2021/11/07 08:33:36;;;;;;;5.53;3.10;;;9.90;99.90;;;;;;5025569;28;20440;-61
2021/11/07 08:36:10;;;;;;;5.20;3.60;;;9.90;99.90;;;;;;5032268;23;20489;-63
2021/11/07 08:38:44;;;;;;;7.60;2.93;;;10.00;99.90;;;;;;5025975;28;20468;-62
2021/11/07 08:41:13;;;;;;;5.17;2.93;;;10.10;99.90;;;;;;5032208;23;20579;-58
2021/11/07 09:00:21;;;;;;;4.53;2.57;;;10.50;99.90;;;;;;5029029;23;20421;-61
2021/11/07 09:05:56;;;;;;;5.50;3.53;;;10.70;99.90;;;;;;5015483;23;20469;-61
2021/11/07 09:08:25;;;;;;;4.23;2.93;;;10.80;99.90;;;;;;5025973;28;20439;-61
2021/11/07 09:10:53;;;;;;;5.93;3.10;;;10.80;99.90;;;;;;5032532;23;20492;-62
2021/11/07 09:13:21;;;;;;;4.17;2.40;;;10.90;99.90;;;;;;5047415;23;20547;-62
2021/11/07 09:15:50;;;;;;;6.47;2.73;;;10.90;99.90;;;;;;5026006;28;20535;-58
2021/11/07 09:18:18;;;;;;;6.60;2.23;;;10.80;99.90;;;;;;5048016;23;21008;-57
2021/11/07 09:20:59;;;;;;;5.90;2.00;;;10.80;99.90;;;;;;5025232;28;20469;-60
2021/11/07 09:23:30;;;;;;;2.40;1.97;;;10.90;99.90;;;;;;5033576;23;20864;-57
2021/11/07 09:26:21;;;;;;;4.13;2.10;;;11.20;99.90;;;;;;5026108;28;20487;-63
2021/11/07 09:28:51;;;;;;;3.40;1.77;;;11.40;99.90;;;;;;5048124;23;20556;-63
2021/11/07 09:31:29;;;;;;;2.40;2.00;;;11.60;99.90;;;;;;5026463;28;20503;-59
2021/11/07 09:34:08;;;;;;;6.17;2.20;;;11.80;99.90;;;;;;5032725;23;20495;-57
2021/11/07 09:36:40;;;;;;;3.67;2.40;;;12.10;99.90;;;;;;5024264;28;20526;-57
2021/11/07 09:39:19;;;;;;;2.80;1.90;;;12.20;99.90;;;;;;5030211;23;20513;-63
2021/11/07 09:42:03;;;;;;;2.07;1.50;;;12.10;99.90;;;;;;5009821;28;20469;-61
2021/11/07 09:44:38;;;;;;;2.80;1.90;;;11.90;99.90;;;;;;5031503;23;20495;-62
2021/11/07 09:47:07;;;;;;;3.00;1.80;;;11.80;99.90;;;;;;5025677;28;20947;-60
2021/11/07 09:49:43;;;;;;;4.73;2.23;;;11.60;99.90;;;;;;5026314;23;20527;-61
2021/11/07 09:52:14;;;;;;;4.57;2.43;;;11.50;99.90;;;;;;5024816;28;20564;-62
2021/11/07 09:54:59;;;;;;;4.27;2.43;;;11.50;99.90;;;;;;5032248;23;20499;-63
2021/11/07 09:57:29;;;;;;;3.30;1.93;;;11.50;99.90;;;;;;5025208;28;20531;-60
2021/11/07 10:00:00;;;;;;;3.10;1.40;;;11.40;99.90;;;;;;5031465;23;20500;-61
2021/11/07 10:02:32;;;;;;;3.27;1.90;;;11.30;99.90;;;;;;5024868;28;20552;-61
2021/11/07 10:05:02;;;;;;;5.67;2.43;;;11.30;99.90;;;;;;5020038;23;20489;-60
2021/11/07 10:07:34;;;;;;;2.23;1.40;;;11.30;99.90;;;;;;5005069;28;20503;-60
2021/11/07 10:10:23;;;;;;;3.40;1.83;;;11.50;99.90;;;;;;5023470;23;20504;-59
2021/11/07 10:12:55;;;;;;;3.07;2.00;;;11.70;99.90;;;;;;5024332;28;20465;-62
2021/11/07 10:15:27;;;;;;;2.40;1.80;;;11.80;99.90;;;;;;5018119;23;20501;-60
2021/11/07 10:17:56;;;;;;;5.53;1.73;;;11.80;99.90;;;;;;5004544;28;20474;-61
2021/11/07 10:20:27;;;;;;;2.70;1.37;;;12.10;99.90;;;;;;5022049;23;20579;-61
2021/11/07 10:23:06;;;;;;;5.03;2.20;;;12.50;99.90;;;;;;5022746;28;20473;-60
2021/11/07 10:25:39;;;;;;;4.43;1.57;;;12.70;99.90;;;;;;5030234;23;20981;-61
2021/11/07 10:28:18;;;;;;;1.73;1.37;;;12.50;99.90;;;;;;5023567;28;20469;-60
2021/11/07 10:30:49;;;;;;;6.70;1.50;;;12.40;99.90;;;;;;5031105;23;20520;-62
2021/11/07 10:33:40;;;;;;;2.23;1.60;;;12.40;99.90;;;;;;5023721;28;20839;-62
2021/11/07 10:52:48;;;;;;;2.37;1.33;;;11.90;99.90;;;;;;5028701;23;20786;-60
2021/11/07 10:57:49;;;;;;;3.63;1.50;;;11.70;99.90;;;;;;5028423;23;20957;-60
2021/11/07 11:03:11;;;;;;;3.50;1.90;;;11.60;99.90;;;;;;5030143;23;20488;-60
2021/11/07 11:08:23;;;;;;;2.70;1.90;;;11.40;99.90;;;;;;5028387;23;20485;-62
2021/11/07 11:13:42;;;;;;;2.10;1.67;;;10.90;99.90;;;;;;5027900;23;20488;-59
2021/11/07 11:16:24;;;;;;;3.90;2.13;;;10.80;99.90;;;;;;5031803;23;20441;-63
2021/11/07 11:19:17;;;;;;;2.77;2.00;;;10.70;99.90;;;;;;5002742;28;20516;-57
2021/11/07 11:24:54;;;;;;;3.80;2.17;;;10.60;99.90;;;;;;5024195;28;20552;-63
2021/11/07 11:33:12;;;;;;;2.10;1.30;;;9.90;99.90;;;;;;5022289;23;20507;-59
2021/11/07 11:35:44;;;;;;;6.70;2.73;;;9.70;99.90;;;;;;5000892;28;20454;-59
2021/11/07 11:38:16;;;;;;;1.73;1.30;;;9.50;99.90;;;;;;5031489;23;20489;-60
2021/11/07 11:40:56;;;;;;;1.83;1.30;;;9.40;99.90;;;;;;5021029;28;20839;-60
2021/11/07 11:43:31;;;;;;;9.13;1.30;;;9.10;99.90;;;;;;5050201;23;20519;-58
2021/11/07 11:46:06;;;;;;;1.27;0.70;;;9.00;99.90;;;;;;5002161;28;20446;-59
2021/11/07 11:49:23;;;;;;;2.73;1.00;;;8.90;99.90;;;;;;5012791;23;20465;-59
2021/11/07 11:52:20;;;;;;;7.27;2.10;;;9.10;99.90;;;;;;5008233;28;20519;-59
2021/11/07 11:57:58;;;;;;;1.37;1.00;;;9.00;99.90;;;;;;5020857;28;20432;-57
2021/11/07 12:00:40;;;;;;;6.90;1.27;;;9.00;99.90;;;;;;5027596;23;20481;-60
2021/11/07 12:03:15;;;;;;;3.53;1.10;;;9.10;99.90;;;;;;5020227;28;20433;-60
2021/11/07 12:05:45;;;;;;;1.80;1.23;;;9.10;99.90;;;;;;5022580;23;20480;-60
2021/11/07 12:08:19;;;;;;;3.43;1.07;;;9.20;99.90;;;;;;5023253;28;20464;-59
2021/11/07 12:10:54;;;;;;;11.43;1.27;;;9.30;99.90;;;;;;5058270;23;20518;-55
2021/11/07 12:13:37;;;;;;;4.50;1.57;;;9.30;99.90;;;;;;5035452;28;20444;-53
2021/11/07 12:16:11;;;;;;;1.43;1.20;;;9.40;99.90;;;;;;5032801;28;20469;-57
2021/11/07 12:19:02;;;;;;;5.60;1.07;;;9.50;99.90;;;;;;5037183;28;20456;-57
2021/11/07 12:22:14;;;;;;;2.40;1.53;;;9.50;99.90;;;;;;5074394;23;20557;-55
2021/11/07 12:25:13;;;;;;;2.40;1.47;;;9.50;99.90;;;;;;5023969;23;20481;-54
2021/11/07 12:27:48;;;;;;;6.20;2.10;;;9.50;99.90;;;;;;5001866;28;20439;-56
2021/11/07 12:30:28;;;;;;;2.70;1.50;;;9.60;99.90;;;;;;5029139;23;20480;-53
2021/11/07 12:33:08;;;;;;;2.17;1.50;;;9.60;99.90;;;;;;5036788;28;20429;-54
2021/11/07 12:35:41;;;;;;;3.63;2.00;;;9.70;99.90;;;;;;5030111;23;20560;-55
2021/11/07 12:41:25;;;;;;;3.90;1.50;;;9.80;99.90;;;;;;5057700;23;20447;-55
2021/11/07 12:44:01;;;;;;;1.87;1.40;;;9.90;99.90;;;;;;5015328;28;20453;-64
2021/11/07 12:46:43;;;;;;;9.97;2.70;;;10.00;99.90;;;;;;5025061;23;20930;-61
2021/11/07 12:49:22;;;;;;;2.80;1.67;;;10.00;99.90;;;;;;5014668;28;20473;-53
2021/11/07 12:51:55;;;;;;;9.27;1.97;;;10.10;99.90;;;;;;5036423;23;20474;-59
2021/11/07 12:54:35;;;;;;;1.47;1.30;;;10.10;99.90;;;;;;5034804;28;20429;-53
2021/11/07 12:57:08;;;;;;;6.50;1.60;;;10.20;99.90;;;;;;5040887;23;20497;-55
2021/11/07 12:59:38;;;;;;;3.93;1.27;;;10.20;99.90;;;;;;5018562;28;20460;-53
2021/11/07 13:02:22;;;;;;;2.03;1.00;;;10.20;99.90;;;;;;5057382;23;20438;-52
2021/11/07 13:04:55;;;;;;;4.10;1.63;;;10.10;99.90;;;;;;5014673;28;20478;-56
2021/11/07 13:07:28;;;;;;;4.70;2.13;;;10.20;99.90;;;;;;5039443;23;20575;-56
2021/11/07 13:09:59;;;;;;;5.20;2.00;;;10.20;99.90;;;;;;5034475;28;20465;-55
2021/11/07 13:12:38;;;;;;;1.87;1.13;;;10.30;99.90;;;;;;5042680;23;20579;-52
2021/11/07 13:15:28;;;;;;;2.40;2.03;;;10.30;99.90;;;;;;5013959;28;20570;-60
2021/11/07 13:18:42;;;;;;;3.03;1.37;;;10.30;99.90;;;;;;5026714;23;20441;-57
2021/11/07 13:24:11;;;;;;;3.50;1.40;;;10.20;99.90;;;;;;5041669;23;20492;-50
2021/11/07 13:26:49;;;;;;;2.50;1.63;;;10.10;99.90;;;;;;5034345;28;20468;-55
2021/11/07 13:29:32;;;;;;;19.40;2.40;;;10.10;99.90;;;;;;5018677;28;20438;-55
2021/11/07 13:32:15;;;;;;;1.93;1.67;;;10.00;99.90;;;;;;5033744;28;20484;-57
2021/11/07 13:34:53;;;;;;;3.87;1.33;;;10.00;99.90;;;;;;5034281;28;20441;-52
2021/11/07 13:37:22;;;;;;;6.67;2.30;;;9.90;99.90;;;;;;5018122;28;20477;-59
2021/11/07 13:39:52;;;;;;;2.60;1.23;;;9.80;99.90;;;;;;5035032;28;20488;-60
2021/11/07 13:42:19;;;;;;;13.93;2.20;;;9.80;99.90;;;;;;5035050;28;20429;-61
2021/11/07 13:44:51;;;;;;;4.33;1.80;;;9.80;99.90;;;;;;5022376;28;20450;-65
2021/11/07 13:47:18;;;;;;;5.07;2.37;;;9.90;99.90;;;;;;5032375;28;20485;-56
2021/11/07 13:49:50;;;;;;;2.60;1.40;;;9.90;99.90;;;;;;5020152;28;20483;-56
2021/11/07 13:52:17;;;;;;;6.00;1.67;;;9.90;99.90;;;;;;5037651;28;20468;-55
2021/11/07 13:54:45;;;;;;;5.40;1.57;;;9.90;99.90;;;;;;5037747;28;20961;-55
2021/11/07 13:57:14;;;;;;;7.27;1.40;;;9.90;99.90;;;;;;5021687;28;20434;-55
2021/11/07 13:59:43;;;;;;;1.87;1.10;;;9.90;99.90;;;;;;5037530;28;20472;-56
2021/11/07 14:02:15;;;;;;;2.43;1.20;;;10.00;99.90;;;;;;5036880;28;20495;-56
2021/11/07 14:04:44;;;;;;;1.50;1.10;;;9.90;99.90;;;;;;5024416;28;20462;-56
2021/11/07 14:07:18;;;;;;;5.77;0.93;;;9.90;99.90;;;;;;5034346;28;20819;-55
2021/11/07 14:10:01;;;;;;;5.00;1.63;;;9.90;99.90;;;;;;5022478;28;20443;-54
2021/11/07 14:12:43;;;;;;;8.10;2.17;;;9.90;99.90;;;;;;5036518;28;20592;-62
2021/11/07 14:15:15;;;;;;;1.23;1.13;;;9.80;99.90;;;;;;5021309;28;20441;-50
2021/11/07 14:17:42;;;;;;;1.30;1.13;;;9.80;99.90;;;;;;5037454;28;20469;-56
2021/11/07 14:20:11;;;;;;;3.43;1.20;;;9.70;99.90;;;;;;5037028;28;20942;-56
2021/11/07 14:22:56;;;;;;;5.03;1.67;;;9.70;99.90;;;;;;5024472;28;20450;-57
2021/11/07 14:25:23;;;;;;;3.67;1.30;;;9.70;99.90;;;;;;5016349;28;20426;-56
2021/11/07 14:27:57;;;;;;;7.40;1.40;;;9.60;99.90;;;;;;5015900;28;20480;-51
2021/11/07 14:30:32;;;;;;;2.70;1.27;;;9.50;99.90;;;;;;5016225;28;20427;-54
2021/11/07 14:33:04;;;;;;;2.70;1.33;;;9.50;99.90;;;;;;5016585;28;20466;-55
2021/11/07 14:35:33;;;;;;;4.40;1.47;;;9.50;99.90;;;;;;5016323;28;20465;-56
2021/11/07 14:38:04;;;;;;;4.83;2.13;;;9.60;99.90;;;;;;5017311;28;20460;-51
2021/11/07 14:40:39;;;;;;;1.40;1.20;;;9.50;99.90;;;;;;5017422;28;20421;-56
2021/11/07 14:43:12;;;;;;;3.80;1.53;;;9.50;99.90;;;;;;5016682;28;20827;-57
2021/11/07 14:45:46;;;;;;;7.83;1.60;;;9.50;99.90;;;;;;5016849;28;20446;-56
2021/11/07 14:48:38;;;;;;;5.60;1.63;;;9.60;99.90;;;;;;5017128;28;20449;-57
2021/11/07 14:51:21;;;;;;;8.13;2.00;;;9.50;99.90;;;;;;5016638;28;20533;-53
2021/11/07 14:53:55;;;;;;;4.73;1.63;;;9.60;99.90;;;;;;5017797;28;20546;-59